Time;durP1;ratioP1;P1;durP2;ratioP2;P2;SDS_P1;SDS_P2;PMS_P1;PMS_P2;Temp;Humidity;BMP_temperature;BMP_pressure;BME280_temperature;BME280_humidity;BME280_pressure;Samples;Min_cycle;Max_cycle;Signal;HPM_P1;HPM_P2
2023/09/16 00:01:23;;;;;;;11.65;6.32;;;;;;;;;;5080168;28;20049;-63
2023/09/16 00:03:50;;;;;;;8.13;6.35;;;;;;;;;;5083097;28;20059;-63
2023/09/16 00:06:17;;;;;;;10.02;6.32;;;;;;;;;;5084543;28;20444;-62
2023/09/16 00:08:45;;;;;;;9.15;6.05;;;;;;;;;;5087167;28;20040;-63
2023/09/16 00:11:13;;;;;;;8.85;6.43;;;;;;;;;;5086915;28;20402;-62
2023/09/16 00:13:43;;;;;;;8.57;6.43;;;;;;;;;;5087396;28;20054;-62
2023/09/16 00:16:12;;;;;;;13.65;6.50;;;;;;;;;;5087537;28;20075;-63
2023/09/16 00:18:39;;;;;;;11.40;7.03;;;;;;;;;;5091732;28;20906;-62
2023/09/16 00:21:06;;;;;;;16.20;8.00;;;;;;;;;;5088956;28;20423;-62
2023/09/16 00:23:33;;;;;;;11.95;7.80;;;;;;;;;;5088533;28;20051;-62
2023/09/16 00:26:03;;;;;;;13.98;8.63;;;;;;;;;;5086605;28;20036;-63
2023/09/16 00:28:32;;;;;;;12.60;8.57;;;;;;;;;;5060852;28;21086;-62
2023/09/16 00:31:01;;;;;;;12.93;8.27;;;;;;;;;;5089053;28;20060;-63
2023/09/16 00:33:29;;;;;;;11.45;8.23;;;;;;;;;;5088098;28;20506;-62
2023/09/16 00:35:57;;;;;;;12.18;8.43;;;;;;;;;;5091409;28;20491;-62
2023/09/16 00:38:24;;;;;;;13.15;7.68;;;;;;;;;;5089895;28;20055;-63
2023/09/16 00:40:53;;;;;;;13.45;8.73;;;;;;;;;;5079855;28;20066;-62
2023/09/16 00:43:20;;;;;;;11.88;8.65;;;;;;;;;;5085776;28;20348;-62
2023/09/16 00:45:48;;;;;;;12.23;7.80;;;;;;;;;;5065431;28;20048;-63
2023/09/16 00:48:17;;;;;;;12.27;8.95;;;;;;;;;;5079905;28;20415;-62
2023/09/16 00:50:45;;;;;;;12.55;7.90;;;;;;;;;;5088928;28;20063;-63
2023/09/16 00:53:13;;;;;;;14.38;8.63;;;;;;;;;;5088011;28;20052;-63
2023/09/16 00:55:40;;;;;;;11.85;8.00;;;;;;;;;;5082173;28;20052;-62
2023/09/16 00:58:09;;;;;;;12.90;8.43;;;;;;;;;;5086907;28;20079;-62
2023/09/16 01:00:36;;;;;;;11.38;8.23;;;;;;;;;;5090606;28;20085;-62
2023/09/16 01:03:06;;;;;;;11.85;7.72;;;;;;;;;;5077833;28;20059;-62
2023/09/16 01:05:33;;;;;;;12.50;8.18;;;;;;;;;;5074921;28;20136;-62
2023/09/16 01:08:01;;;;;;;13.45;8.23;;;;;;;;;;5087873;28;20059;-63
2023/09/16 01:10:28;;;;;;;10.07;7.30;;;;;;;;;;5090148;28;20036;-62
2023/09/16 01:12:56;;;;;;;11.85;8.18;;;;;;;;;;5069959;28;20053;-63
2023/09/16 01:15:31;;;;;;;11.98;7.85;;;;;;;;;;5083393;28;20102;-62
2023/09/16 01:18:03;;;;;;;12.23;8.20;;;;;;;;;;5083003;28;20044;-62
2023/09/16 01:20:32;;;;;;;11.07;8.40;;;;;;;;;;5085083;28;20521;-63
2023/09/16 01:22:59;;;;;;;10.23;7.55;;;;;;;;;;5080358;28;20170;-63
2023/09/16 01:25:28;;;;;;;10.80;7.78;;;;;;;;;;5079538;28;21050;-62
2023/09/16 01:27:56;;;;;;;12.90;7.93;;;;;;;;;;5089769;28;20055;-63
2023/09/16 01:30:23;;;;;;;10.32;8.00;;;;;;;;;;5089259;28;20044;-63
2023/09/16 01:32:52;;;;;;;13.68;7.93;;;;;;;;;;5087708;28;20403;-63
2023/09/16 01:35:21;;;;;;;15.40;8.25;;;;;;;;;;5084073;28;21050;-62
2023/09/16 01:37:49;;;;;;;10.85;8.35;;;;;;;;;;5096984;28;20525;-62
2023/09/16 01:40:17;;;;;;;13.35;8.55;;;;;;;;;;5070406;28;20044;-63
2023/09/16 01:42:46;;;;;;;11.73;8.77;;;;;;;;;;5087084;28;20052;-63
2023/09/16 01:45:14;;;;;;;13.00;8.70;;;;;;;;;;5088016;28;20044;-63
2023/09/16 01:47:41;;;;;;;16.08;8.60;;;;;;;;;;5086928;28;20109;-63
2023/09/16 01:50:09;;;;;;;12.02;8.95;;;;;;;;;;5087465;28;20109;-62
2023/09/16 01:52:36;;;;;;;12.73;8.45;;;;;;;;;;5084838;28;20047;-62
2023/09/16 01:55:03;;;;;;;12.52;8.52;;;;;;;;;;5088870;28;20056;-62
2023/09/16 01:57:31;;;;;;;14.73;8.90;;;;;;;;;;5080249;28;20051;-63
2023/09/16 01:59:59;;;;;;;12.48;8.90;;;;;;;;;;5090067;28;20048;-63
2023/09/16 02:02:26;;;;;;;11.88;8.48;;;;;;;;;;5088104;28;20050;-62
2023/09/16 02:04:54;;;;;;;13.40;9.15;;;;;;;;;;5084976;28;20044;-62
2023/09/16 02:07:21;;;;;;;15.40;9.70;;;;;;;;;;5086715;28;20487;-62
2023/09/16 02:09:48;;;;;;;13.88;10.25;;;;;;;;;;5082660;28;20045;-63
2023/09/16 02:12:15;;;;;;;15.98;10.73;;;;;;;;;;5082773;28;20055;-62
2023/09/16 02:14:42;;;;;;;14.07;10.23;;;;;;;;;;5079131;28;20049;-64
2023/09/16 02:17:11;;;;;;;16.60;10.55;;;;;;;;;;5080536;28;20411;-63
2023/09/16 02:19:38;;;;;;;16.10;9.85;;;;;;;;;;5090266;28;20434;-62
2023/09/16 02:22:05;;;;;;;12.02;9.23;;;;;;;;;;5087009;28;20047;-62
2023/09/16 02:24:33;;;;;;;16.83;10.18;;;;;;;;;;5088716;28;20304;-62
2023/09/16 02:27:00;;;;;;;15.60;9.70;;;;;;;;;;5084738;28;20059;-62
2023/09/16 02:29:27;;;;;;;14.52;9.98;;;;;;;;;;5082271;28;20495;-63
2023/09/16 02:31:54;;;;;;;12.40;9.20;;;;;;;;;;5088225;28;20054;-62
2023/09/16 02:34:23;;;;;;;13.93;9.98;;;;;;;;;;5089180;28;20050;-63
2023/09/16 02:36:50;;;;;;;11.43;8.50;;;;;;;;;;5080616;28;20100;-65
2023/09/16 02:39:18;;;;;;;14.38;8.45;;;;;;;;;;5086117;28;20036;-62
2023/09/16 02:41:45;;;;;;;14.95;10.10;;;;;;;;;;5087330;28;20047;-62
2023/09/16 02:44:12;;;;;;;14.60;9.45;;;;;;;;;;5082602;28;20084;-62
2023/09/16 02:46:39;;;;;;;12.25;9.45;;;;;;;;;;5080219;28;20063;-63
2023/09/16 02:49:07;;;;;;;12.43;9.45;;;;;;;;;;5090038;28;20044;-62
2023/09/16 02:51:35;;;;;;;12.80;9.35;;;;;;;;;;5077079;28;20064;-62
2023/09/16 02:54:05;;;;;;;12.05;8.43;;;;;;;;;;5087748;28;20051;-62
2023/09/16 02:56:32;;;;;;;14.15;8.75;;;;;;;;;;5082626;28;20044;-62
2023/09/16 02:59:00;;;;;;;14.57;9.02;;;;;;;;;;5082832;28;20058;-63
2023/09/16 03:01:28;;;;;;;13.88;9.32;;;;;;;;;;5087959;28;20091;-62
2023/09/16 03:03:55;;;;;;;14.75;9.52;;;;;;;;;;5086609;28;20066;-62
2023/09/16 03:06:22;;;;;;;17.02;9.63;;;;;;;;;;5084888;28;20044;-63
2023/09/16 03:08:51;;;;;;;12.32;9.35;;;;;;;;;;5083967;28;20044;-62
2023/09/16 03:11:18;;;;;;;13.52;9.82;;;;;;;;;;5080828;28;20428;-63
2023/09/16 03:13:45;;;;;;;17.00;9.88;;;;;;;;;;5083268;28;20059;-63
2023/09/16 03:16:15;;;;;;;14.55;9.32;;;;;;;;;;5079458;28;20049;-62
2023/09/16 03:18:44;;;;;;;16.08;10.65;;;;;;;;;;5084612;28;20047;-63
2023/09/16 03:21:11;;;;;;;12.88;9.30;;;;;;;;;;5088190;28;20096;-62
2023/09/16 03:23:38;;;;;;;14.90;9.60;;;;;;;;;;5086902;28;20488;-63
2023/09/16 03:26:08;;;;;;;15.40;10.18;;;;;;;;;;5077644;28;20048;-63
2023/09/16 03:28:35;;;;;;;13.48;10.00;;;;;;;;;;5080408;28;20391;-63
2023/09/16 03:31:02;;;;;;;14.82;10.20;;;;;;;;;;5083328;28;20487;-62
2023/09/16 03:33:30;;;;;;;14.10;9.98;;;;;;;;;;5080099;28;20044;-62
2023/09/16 03:35:57;;;;;;;19.17;11.80;;;;;;;;;;5069114;28;20050;-63
2023/09/16 03:38:24;;;;;;;14.98;10.52;;;;;;;;;;5064992;28;20044;-63
2023/09/16 03:40:52;;;;;;;15.43;10.80;;;;;;;;;;5082732;28;20499;-63
2023/09/16 03:43:20;;;;;;;13.77;10.25;;;;;;;;;;5069093;28;20052;-62
2023/09/16 03:45:47;;;;;;;15.63;10.63;;;;;;;;;;5084979;28;20052;-63
2023/09/16 03:48:15;;;;;;;15.23;9.70;;;;;;;;;;5081248;28;20047;-62
2023/09/16 03:50:42;;;;;;;13.43;10.30;;;;;;;;;;5087573;28;20055;-61
2023/09/16 03:53:10;;;;;;;13.90;10.02;;;;;;;;;;5086011;28;20048;-62
2023/09/16 03:55:37;;;;;;;17.98;9.40;;;;;;;;;;5085561;28;20088;-63
2023/09/16 03:58:04;;;;;;;12.25;9.40;;;;;;;;;;5081958;28;20051;-62
2023/09/16 04:00:33;;;;;;;13.73;9.10;;;;;;;;;;5087364;28;20040;-62
2023/09/16 04:03:00;;;;;;;13.85;9.90;;;;;;;;;;5079244;28;20052;-62
2023/09/16 04:05:27;;;;;;;16.10;10.13;;;;;;;;;;5079296;28;20051;-62
2023/09/16 04:07:55;;;;;;;14.52;9.82;;;;;;;;;;5075816;28;20420;-64
2023/09/16 04:10:22;;;;;;;14.85;10.00;;;;;;;;;;5080944;28;20044;-63
2023/09/16 04:12:49;;;;;;;14.57;9.60;;;;;;;;;;5086511;28;20044;-64
2023/09/16 04:15:16;;;;;;;13.80;9.25;;;;;;;;;;5077296;28;20056;-62
2023/09/16 04:17:45;;;;;;;12.18;8.82;;;;;;;;;;5086483;28;20048;-63
2023/09/16 04:20:12;;;;;;;13.35;7.65;;;;;;;;;;5091009;28;20059;-62
2023/09/16 04:22:40;;;;;;;12.02;6.93;;;;;;;;;;5086416;28;20044;-63
2023/09/16 04:25:07;;;;;;;80.63;5.95;;;;;;;;;;5079939;28;20070;-62
2023/09/16 04:27:34;;;;;;;9.70;5.45;;;;;;;;;;5090318;28;20043;-63
2023/09/16 04:30:03;;;;;;;6.93;5.15;;;;;;;;;;5089386;28;20043;-63
2023/09/16 04:32:30;;;;;;;6.93;5.47;;;;;;;;;;5072957;28;20063;-63
2023/09/16 04:34:59;;;;;;;5.80;5.00;;;;;;;;;;5090719;28;20044;-62
2023/09/16 04:37:26;;;;;;;7.82;5.88;;;;;;;;;;5086358;28;20045;-62
2023/09/16 04:39:53;;;;;;;7.68;5.93;;;;;;;;;;5091188;28;20047;-62
2023/09/16 04:42:21;;;;;;;9.73;6.35;;;;;;;;;;5082639;28;21213;-62
2023/09/16 04:44:48;;;;;;;8.70;6.80;;;;;;;;;;5082535;28;20048;-63
2023/09/16 04:47:15;;;;;;;9.30;6.55;;;;;;;;;;5089085;28;20495;-62
2023/09/16 04:49:43;;;;;;;9.32;6.13;;;;;;;;;;5086424;28;20052;-63
2023/09/16 04:52:12;;;;;;;9.20;6.45;;;;;;;;;;5068195;28;20073;-62
2023/09/16 04:54:40;;;;;;;9.55;6.72;;;;;;;;;;5085867;28;20422;-63
2023/09/16 04:57:08;;;;;;;10.63;8.20;;;;;;;;;;5084600;28;20561;-63
2023/09/16 04:59:35;;;;;;;10.85;7.70;;;;;;;;;;5089793;28;20402;-62
2023/09/16 05:02:02;;;;;;;13.13;6.25;;;;;;;;;;5086893;28;20059;-63
2023/09/16 05:04:30;;;;;;;13.10;5.82;;;;;;;;;;5083693;28;20055;-62
2023/09/16 05:06:57;;;;;;;25.80;6.60;;;;;;;;;;5081015;28;20469;-62
2023/09/16 05:09:26;;;;;;;43.42;6.15;;;;;;;;;;5090588;28;20040;-64
2023/09/16 05:11:53;;;;;;;32.35;5.22;;;;;;;;;;5089366;28;20047;-62
2023/09/16 05:14:20;;;;;;;14.32;6.90;;;;;;;;;;5089160;28;20041;-62
2023/09/16 05:16:48;;;;;;;8.60;6.45;;;;;;;;;;5091583;28;20083;-64
2023/09/16 05:19:15;;;;;;;9.50;6.60;;;;;;;;;;5089655;28;20048;-62
2023/09/16 05:21:42;;;;;;;10.07;6.70;;;;;;;;;;5081252;28;20483;-62
2023/09/16 05:24:10;;;;;;;10.45;7.50;;;;;;;;;;5091955;28;20043;-62
2023/09/16 05:26:38;;;;;;;9.32;7.22;;;;;;;;;;5085733;28;20041;-62
2023/09/16 05:29:05;;;;;;;10.00;6.45;;;;;;;;;;5078372;28;20502;-62
2023/09/16 05:31:33;;;;;;;9.05;6.53;;;;;;;;;;5068603;28;20048;-62
2023/09/16 05:34:00;;;;;;;8.85;6.10;;;;;;;;;;5080299;28;20082;-63
2023/09/16 05:36:27;;;;;;;12.00;5.95;;;;;;;;;;5084241;28;20114;-63
2023/09/16 05:38:54;;;;;;;9.43;6.30;;;;;;;;;;5084559;28;20048;-63
2023/09/16 05:41:22;;;;;;;9.23;6.38;;;;;;;;;;5070388;28;20056;-63
2023/09/16 05:43:50;;;;;;;9.75;6.85;;;;;;;;;;5068958;28;20051;-62
2023/09/16 05:46:18;;;;;;;9.15;6.88;;;;;;;;;;5079005;28;20055;-64
2023/09/16 05:48:46;;;;;;;15.48;9.00;;;;;;;;;;5077491;28;20048;-63
2023/09/16 05:51:13;;;;;;;11.93;7.70;;;;;;;;;;5086194;28;20047;-65
2023/09/16 05:53:41;;;;;;;10.52;7.93;;;;;;;;;;5086707;28;20503;-63
2023/09/16 05:56:09;;;;;;;11.02;7.75;;;;;;;;;;5086668;28;20053;-62
2023/09/16 05:58:36;;;;;;;11.02;7.78;;;;;;;;;;5094594;28;20059;-63
2023/09/16 06:01:05;;;;;;;10.82;7.75;;;;;;;;;;5089488;28;20368;-63
2023/09/16 06:03:32;;;;;;;9.63;7.10;;;;;;;;;;5092735;28;20048;-63
2023/09/16 06:05:59;;;;;;;9.20;7.13;;;;;;;;;;5065396;28;20059;-64
2023/09/16 06:08:27;;;;;;;14.63;7.53;;;;;;;;;;5081388;28;20068;-63
2023/09/16 06:10:54;;;;;;;10.10;7.20;;;;;;;;;;5082243;28;20048;-63
2023/09/16 06:13:22;;;;;;;13.40;7.13;;;;;;;;;;5089608;28;20052;-63
2023/09/16 06:15:50;;;;;;;10.10;7.15;;;;;;;;;;5081987;28;20075;-62
2023/09/16 06:18:18;;;;;;;9.40;7.40;;;;;;;;;;5081884;28;20054;-62
2023/09/16 06:20:46;;;;;;;9.18;7.18;;;;;;;;;;5068136;28;20051;-62
2023/09/16 06:23:14;;;;;;;9.52;7.43;;;;;;;;;;5083645;28;20540;-65
2023/09/16 06:25:41;;;;;;;12.52;7.63;;;;;;;;;;5086836;28;20055;-62
2023/09/16 06:28:08;;;;;;;12.48;7.55;;;;;;;;;;5087039;28;20048;-62
2023/09/16 06:30:35;;;;;;;8.50;7.15;;;;;;;;;;5084736;28;20127;-62
2023/09/16 06:33:03;;;;;;;10.07;7.43;;;;;;;;;;5092365;28;20400;-62
2023/09/16 06:35:31;;;;;;;9.23;7.40;;;;;;;;;;5091044;28;20047;-63
2023/09/16 06:37:58;;;;;;;11.35;7.95;;;;;;;;;;5079727;28;20044;-63
2023/09/16 06:40:26;;;;;;;12.30;8.68;;;;;;;;;;5083626;28;20047;-62
2023/09/16 06:42:53;;;;;;;10.40;8.32;;;;;;;;;;5080263;28;20228;-62
2023/09/16 06:45:20;;;;;;;12.73;9.63;;;;;;;;;;5082462;28;20043;-63
2023/09/16 06:47:47;;;;;;;13.65;9.57;;;;;;;;;;5056728;28;20061;-63
2023/09/16 06:50:15;;;;;;;14.15;10.02;;;;;;;;;;5057745;28;20048;-62
2023/09/16 06:52:44;;;;;;;15.18;10.98;;;;;;;;;;5059365;28;20059;-63
2023/09/16 06:55:12;;;;;;;15.55;11.50;;;;;;;;;;5061154;28;20041;-63
2023/09/16 06:57:39;;;;;;;13.20;11.02;;;;;;;;;;5064140;28;20045;-63
2023/09/16 07:00:06;;;;;;;13.98;10.32;;;;;;;;;;5060011;28;20734;-63
2023/09/16 07:02:34;;;;;;;13.20;10.35;;;;;;;;;;5066633;28;20400;-62
2023/09/16 07:05:01;;;;;;;14.98;11.57;;;;;;;;;;5060674;28;20059;-62
2023/09/16 07:07:28;;;;;;;17.52;12.13;;;;;;;;;;5067559;28;20406;-62
2023/09/16 07:09:57;;;;;;;18.77;13.48;;;;;;;;;;5062564;28;20563;-62
2023/09/16 07:12:25;;;;;;;18.92;13.82;;;;;;;;;;5064767;28;20499;-64
2023/09/16 07:14:52;;;;;;;20.30;14.63;;;;;;;;;;5062422;28;20052;-62
2023/09/16 07:17:19;;;;;;;26.25;14.55;;;;;;;;;;5064388;28;20049;-63
2023/09/16 07:19:47;;;;;;;22.15;14.57;;;;;;;;;;5067380;28;20509;-63
2023/09/16 07:22:14;;;;;;;25.80;15.80;;;;;;;;;;5065533;28;20052;-63
2023/09/16 07:24:41;;;;;;;23.30;16.15;;;;;;;;;;5067004;28;20051;-62
2023/09/16 07:27:10;;;;;;;26.50;15.85;;;;;;;;;;5057756;28;20127;-63
2023/09/16 07:29:37;;;;;;;24.38;16.33;;;;;;;;;;5064402;28;20045;-62
2023/09/16 07:32:04;;;;;;;22.73;16.02;;;;;;;;;;5061043;28;20057;-62
2023/09/16 07:34:32;;;;;;;22.17;15.05;;;;;;;;;;5068606;28;20040;-63
2023/09/16 07:37:01;;;;;;;25.40;17.70;;;;;;;;;;5061695;28;20049;-63
2023/09/16 07:39:28;;;;;;;28.75;17.48;;;;;;;;;;5066204;28;20171;-62
2023/09/16 07:41:56;;;;;;;28.23;17.77;;;;;;;;;;5066791;28;20044;-63
2023/09/16 07:44:26;;;;;;;25.10;16.85;;;;;;;;;;5067075;28;20052;-62
2023/09/16 07:46:53;;;;;;;23.55;16.85;;;;;;;;;;5063204;28;20136;-63
2023/09/16 07:49:21;;;;;;;26.73;18.00;;;;;;;;;;5086561;28;20044;-63
2023/09/16 07:51:49;;;;;;;27.40;17.00;;;;;;;;;;5086208;28;20071;-62
2023/09/16 07:54:16;;;;;;;26.30;16.95;;;;;;;;;;5086474;28;20518;-62
2023/09/16 07:56:44;;;;;;;22.08;15.40;;;;;;;;;;5079082;28;20056;-62
2023/09/16 07:59:11;;;;;;;20.92;14.88;;;;;;;;;;5086859;28;20055;-63
2023/09/16 08:01:39;;;;;;;21.90;14.85;;;;;;;;;;5090268;28;20376;-62
2023/09/16 08:04:07;;;;;;;23.08;16.05;;;;;;;;;;5091141;28;20774;-62
2023/09/16 08:06:34;;;;;;;21.98;15.52;;;;;;;;;;5082661;28;20052;-62
2023/09/16 08:09:01;;;;;;;24.67;17.48;;;;;;;;;;5089869;28;20076;-63
2023/09/16 08:11:28;;;;;;;23.15;16.08;;;;;;;;;;5085951;28;21163;-63
2023/09/16 08:13:55;;;;;;;23.30;15.63;;;;;;;;;;5091335;28;20050;-64
2023/09/16 08:16:23;;;;;;;21.90;14.68;;;;;;;;;;5089518;28;20052;-63
2023/09/16 08:18:51;;;;;;;15.57;12.45;;;;;;;;;;5091716;28;20506;-63
2023/09/16 08:21:19;;;;;;;20.45;12.48;;;;;;;;;;5090459;28;20098;-63
2023/09/16 08:23:46;;;;;;;19.92;13.02;;;;;;;;;;5085775;28;20503;-63
2023/09/16 08:26:13;;;;;;;19.30;13.40;;;;;;;;;;5078680;28;20049;-64
2023/09/16 08:28:40;;;;;;;18.38;12.65;;;;;;;;;;5089551;28;20473;-63
2023/09/16 08:31:07;;;;;;;18.65;12.15;;;;;;;;;;5089114;28;20487;-62
2023/09/16 08:33:35;;;;;;;19.73;11.52;;;;;;;;;;5087213;28;20068;-63
2023/09/16 08:36:03;;;;;;;15.70;10.02;;;;;;;;;;5090874;28;20502;-64
2023/09/16 08:38:31;;;;;;;17.40;9.85;;;;;;;;;;5070556;28;20068;-63
2023/09/16 08:41:08;;;;;;;15.60;9.45;;;;;;;;;;5090273;28;20445;-64
2023/09/16 08:43:38;;;;;;;14.32;9.75;;;;;;;;;;5087977;28;20048;-63
2023/09/16 08:46:10;;;;;;;13.13;9.23;;;;;;;;;;5091887;28;20052;-63
2023/09/16 08:48:38;;;;;;;16.40;8.95;;;;;;;;;;5092219;28;20052;-62
2023/09/16 08:51:07;;;;;;;13.55;8.55;;;;;;;;;;5075124;28;20497;-65
2023/09/16 08:53:36;;;;;;;12.95;9.13;;;;;;;;;;5090942;28;20044;-63
2023/09/16 08:56:04;;;;;;;15.50;10.32;;;;;;;;;;5095533;28;20071;-64
2023/09/16 08:58:34;;;;;;;14.75;8.55;;;;;;;;;;5089562;28;20048;-63
2023/09/16 09:01:02;;;;;;;10.10;6.35;;;;;;;;;;5099111;28;20406;-63
2023/09/16 09:03:30;;;;;;;9.45;7.07;;;;;;;;;;5095880;28;20101;-63
2023/09/16 09:05:58;;;;;;;10.82;7.43;;;;;;;;;;5095700;28;20376;-64
2023/09/16 09:08:26;;;;;;;17.13;7.85;;;;;;;;;;5095674;28;20055;-63
2023/09/16 09:10:54;;;;;;;11.00;6.65;;;;;;;;;;5087661;28;20043;-63
2023/09/16 09:13:21;;;;;;;15.70;6.85;;;;;;;;;;5078827;28;20040;-65
2023/09/16 09:15:49;;;;;;;11.20;6.60;;;;;;;;;;5089910;28;20048;-63
2023/09/16 09:18:18;;;;;;;9.32;5.95;;;;;;;;;;5067610;28;20053;-63
2023/09/16 09:20:45;;;;;;;9.85;6.43;;;;;;;;;;5088922;28;20499;-64
2023/09/16 09:23:13;;;;;;;10.48;6.28;;;;;;;;;;5083094;28;20512;-65
2023/09/16 09:25:42;;;;;;;9.63;6.28;;;;;;;;;;5087857;28;20086;-63
2023/09/16 09:28:10;;;;;;;34.38;7.45;;;;;;;;;;5101511;28;20055;-63
2023/09/16 09:30:39;;;;;;;9.85;6.20;;;;;;;;;;5093636;28;20048;-63
2023/09/16 09:33:06;;;;;;;9.90;6.20;;;;;;;;;;5095244;28;20172;-63
2023/09/16 09:35:33;;;;;;;8.35;5.80;;;;;;;;;;5090177;28;20613;-63
2023/09/16 09:38:00;;;;;;;9.25;5.80;;;;;;;;;;5099985;28;20047;-63
2023/09/16 09:40:29;;;;;;;9.30;5.68;;;;;;;;;;5096564;28;20044;-63
2023/09/16 09:42:57;;;;;;;11.55;6.50;;;;;;;;;;5090532;28;20132;-64
2023/09/16 09:45:25;;;;;;;9.73;5.32;;;;;;;;;;5090881;28;20055;-65
2023/09/16 09:47:53;;;;;;;7.05;4.70;;;;;;;;;;5092657;28;20099;-64
2023/09/16 09:50:21;;;;;;;7.25;4.28;;;;;;;;;;5088670;28;20040;-63
2023/09/16 09:52:49;;;;;;;7.50;4.53;;;;;;;;;;5081875;28;20047;-63
2023/09/16 09:55:17;;;;;;;5.20;3.42;;;;;;;;;;5085438;28;20052;-63
2023/09/16 09:57:45;;;;;;;7.45;4.50;;;;;;;;;;5085980;28;20458;-63
2023/09/16 10:00:16;;;;;;;10.00;4.20;;;;;;;;;;5085915;28;20048;-63
2023/09/16 10:02:44;;;;;;;5.95;3.75;;;;;;;;;;5081023;28;20055;-64
2023/09/16 10:05:14;;;;;;;6.28;4.20;;;;;;;;;;5085416;28;20048;-63
2023/09/16 10:07:42;;;;;;;8.68;4.35;;;;;;;;;;5088695;28;20048;-63
2023/09/16 10:10:14;;;;;;;5.75;4.07;;;;;;;;;;5087909;28;20048;-63
2023/09/16 10:12:41;;;;;;;8.63;4.00;;;;;;;;;;5090350;28;20048;-63
2023/09/16 10:15:09;;;;;;;8.13;3.17;;;;;;;;;;5085251;28;20051;-63
2023/09/16 10:17:38;;;;;;;5.18;3.13;;;;;;;;;;5086055;28;20048;-63
2023/09/16 10:20:09;;;;;;;7.40;3.83;;;;;;;;;;5072836;28;20086;-64
2023/09/16 10:22:37;;;;;;;11.15;3.85;;;;;;;;;;5064838;28;20093;-64
2023/09/16 10:25:04;;;;;;;8.10;3.95;;;;;;;;;;5087643;28;21481;-63
2023/09/16 10:27:33;;;;;;;5.72;3.50;;;;;;;;;;5089338;28;20506;-62
2023/09/16 10:30:01;;;;;;;5.50;2.97;;;;;;;;;;5083317;28;20048;-63
2023/09/16 10:32:29;;;;;;;5.63;3.28;;;;;;;;;;5086906;28;20044;-63
2023/09/16 10:35:01;;;;;;;8.07;2.65;;;;;;;;;;5079850;28;20044;-64
2023/09/16 10:37:28;;;;;;;5.10;2.90;;;;;;;;;;5093191;28;20399;-63
2023/09/16 10:39:56;;;;;;;3.90;2.40;;;;;;;;;;5088513;28;20529;-63
2023/09/16 10:42:24;;;;;;;5.28;3.13;;;;;;;;;;5088696;28;20047;-63
2023/09/16 10:44:51;;;;;;;4.72;2.80;;;;;;;;;;5087620;28;20609;-64
2023/09/16 10:47:19;;;;;;;5.20;3.28;;;;;;;;;;5091507;28;20464;-63
2023/09/16 10:49:46;;;;;;;8.00;3.08;;;;;;;;;;5073820;28;20131;-63
2023/09/16 10:52:18;;;;;;;6.25;3.20;;;;;;;;;;5086243;28;20402;-63
2023/09/16 10:54:48;;;;;;;6.60;3.42;;;;;;;;;;5089213;28;20559;-63
2023/09/16 10:57:18;;;;;;;6.22;3.30;;;;;;;;;;5099762;28;20047;-65
2023/09/16 10:59:45;;;;;;;7.32;3.30;;;;;;;;;;5083779;28;20056;-64
2023/09/16 11:02:17;;;;;;;6.43;2.75;;;;;;;;;;5090735;28;20578;-63
2023/09/16 11:04:44;;;;;;;4.95;2.75;;;;;;;;;;5085234;28;20056;-65
2023/09/16 11:07:12;;;;;;;7.80;2.80;;;;;;;;;;5090290;28;20383;-63
2023/09/16 11:09:41;;;;;;;5.53;2.80;;;;;;;;;;5086142;28;20094;-64
2023/09/16 11:12:09;;;;;;;4.07;2.50;;;;;;;;;;5098851;28;20040;-63
2023/09/16 11:14:36;;;;;;;3.40;2.80;;;;;;;;;;5086609;28;20047;-64
2023/09/16 11:17:11;;;;;;;5.63;3.08;;;;;;;;;;5088338;28;20165;-63
2023/09/16 11:19:38;;;;;;;4.93;3.08;;;;;;;;;;5085045;28;20054;-64
2023/09/16 11:22:05;;;;;;;7.40;3.08;;;;;;;;;;5090548;28;20048;-63
2023/09/16 11:24:34;;;;;;;9.07;3.25;;;;;;;;;;5081297;28;21163;-63
2023/09/16 11:27:03;;;;;;;4.68;2.90;;;;;;;;;;5091942;28;20051;-64
2023/09/16 11:29:31;;;;;;;9.23;3.60;;;;;;;;;;5075130;28;20511;-64
2023/09/16 11:31:58;;;;;;;6.05;3.53;;;;;;;;;;5086897;28;20520;-64
2023/09/16 11:34:27;;;;;;;5.50;3.10;;;;;;;;;;5079747;28;20064;-64
2023/09/16 11:36:55;;;;;;;5.38;3.00;;;;;;;;;;5098967;28;20109;-64
2023/09/16 11:39:24;;;;;;;5.18;3.25;;;;;;;;;;5070057;28;20056;-63
2023/09/16 11:41:53;;;;;;;5.65;3.10;;;;;;;;;;5081938;28;20036;-63
2023/09/16 11:44:21;;;;;;;5.45;3.05;;;;;;;;;;5083829;28;20070;-63
2023/09/16 11:46:49;;;;;;;6.85;3.72;;;;;;;;;;5091064;28;20104;-63
2023/09/16 11:49:16;;;;;;;5.57;3.70;;;;;;;;;;5089681;28;20052;-64
2023/09/16 11:51:50;;;;;;;5.07;2.80;;;;;;;;;;5090528;28;20059;-64
2023/09/16 11:54:17;;;;;;;8.10;3.30;;;;;;;;;;5090609;28;20052;-66
2023/09/16 11:56:44;;;;;;;8.50;2.92;;;;;;;;;;5088265;28;20054;-63
2023/09/16 11:59:12;;;;;;;5.07;3.40;;;;;;;;;;5084079;28;20043;-64
2023/09/16 12:01:42;;;;;;;7.25;3.55;;;;;;;;;;5089935;28;20048;-65
2023/09/16 12:04:11;;;;;;;4.70;2.90;;;;;;;;;;5084732;28;20483;-64
2023/09/16 12:06:39;;;;;;;6.45;3.40;;;;;;;;;;5088598;28;20455;-62
2023/09/16 12:09:07;;;;;;;6.45;3.17;;;;;;;;;;5089871;28;20048;-62
2023/09/16 12:11:36;;;;;;;8.40;3.22;;;;;;;;;;5087376;28;20048;-63
2023/09/16 12:14:04;;;;;;;5.35;3.40;;;;;;;;;;5092293;28;20479;-62
2023/09/16 12:16:31;;;;;;;4.25;3.50;;;;;;;;;;5088874;28;20044;-62
2023/09/16 12:18:59;;;;;;;15.82;4.90;;;;;;;;;;5091227;28;20166;-63
2023/09/16 12:21:27;;;;;;;14.75;3.80;;;;;;;;;;5089885;28;20040;-62
2023/09/16 12:23:54;;;;;;;5.15;3.33;;;;;;;;;;5086697;28;20384;-62
2023/09/16 12:26:21;;;;;;;4.82;3.20;;;;;;;;;;5082160;28;20052;-63
2023/09/16 12:28:49;;;;;;;7.53;2.92;;;;;;;;;;5070878;28;20510;-63
2023/09/16 12:31:21;;;;;;;7.28;4.68;;;;;;;;;;5087388;28;20055;-64
2023/09/16 12:33:53;;;;;;;;;;;;;;;;;;5081033;28;20056;-62
2023/09/16 12:36:23;;;;;;;4.93;3.28;;;;;;;;;;5082473;28;20015;-62
2023/09/16 12:38:51;;;;;;;5.97;3.20;;;;;;;;;;5087695;28;20060;-62
2023/09/16 12:41:18;;;;;;;5.43;2.80;;;;;;;;;;5085342;28;20107;-63
2023/09/16 12:43:46;;;;;;;7.05;3.55;;;;;;;;;;5091018;28;20056;-61
2023/09/16 12:46:14;;;;;;;4.60;3.03;;;;;;;;;;5090034;28;20056;-62
2023/09/16 12:48:42;;;;;;;3.97;2.70;;;;;;;;;;5086364;28;20539;-61
2023/09/16 12:51:10;;;;;;;5.93;2.85;;;;;;;;;;5085883;28;20048;-62
2023/09/16 12:53:41;;;;;;;4.07;2.80;;;;;;;;;;5088695;28;20123;-62
2023/09/16 12:56:08;;;;;;;6.38;3.10;;;;;;;;;;5089327;28;20694;-62
2023/09/16 12:58:41;;;;;;;6.47;2.83;;;;;;;;;;5085427;28;20055;-62
2023/09/16 13:01:08;;;;;;;;;;;;;;;;;;5089962;28;20481;-62
2023/09/16 13:03:39;;;;;;;3.47;2.78;;;;;;;;;;5088481;28;19968;-62
2023/09/16 13:06:06;;;;;;;16.67;3.72;;;;;;;;;;5089555;28;20469;-62
2023/09/16 13:08:34;;;;;;;10.68;3.35;;;;;;;;;;5084118;28;20048;-61
2023/09/16 13:11:03;;;;;;;4.50;3.00;;;;;;;;;;5085912;28;20059;-62
2023/09/16 13:13:30;;;;;;;2.70;2.25;;;;;;;;;;5077450;28;20059;-62
2023/09/16 13:15:58;;;;;;;18.77;3.75;;;;;;;;;;5088795;28;20044;-63
2023/09/16 13:18:26;;;;;;;4.68;2.80;;;;;;;;;;5088595;28;20043;-62
2023/09/16 13:20:55;;;;;;;4.82;3.20;;;;;;;;;;5089761;28;20079;-62
2023/09/16 13:23:25;;;;;;;4.13;2.83;;;;;;;;;;5084659;28;20044;-63
2023/09/16 13:25:54;;;;;;;7.70;2.97;;;;;;;;;;5085979;28;20074;-62
2023/09/16 13:28:24;;;;;;;4.00;3.10;;;;;;;;;;5088395;28;20084;-63
2023/09/16 13:30:53;;;;;;;6.93;3.53;;;;;;;;;;5087305;28;20079;-62
2023/09/16 13:33:20;;;;;;;6.03;3.22;;;;;;;;;;5089817;28;20484;-63
2023/09/16 13:35:49;;;;;;;3.53;2.53;;;;;;;;;;5091790;28;20047;-62
2023/09/16 13:38:16;;;;;;;3.97;2.97;;;;;;;;;;5089644;28;20518;-62
2023/09/16 13:40:49;;;;;;;5.18;3.00;;;;;;;;;;5085287;28;20072;-62
2023/09/16 13:43:16;;;;;;;4.00;2.80;;;;;;;;;;5087035;28;20044;-63
2023/09/16 13:45:45;;;;;;;4.38;2.72;;;;;;;;;;5087015;28;20410;-63
2023/09/16 13:48:13;;;;;;;5.18;3.22;;;;;;;;;;5090903;28;20055;-62
2023/09/16 13:50:42;;;;;;;3.55;2.60;;;;;;;;;;5094266;28;20054;-62
2023/09/16 13:53:09;;;;;;;6.30;2.70;;;;;;;;;;5095380;28;20036;-62
2023/09/16 13:55:37;;;;;;;5.05;2.85;;;;;;;;;;5095428;28;20508;-62
2023/09/16 13:58:04;;;;;;;4.32;2.67;;;;;;;;;;5079529;28;20048;-62
2023/09/16 14:00:32;;;;;;;4.45;2.50;;;;;;;;;;5088120;28;20044;-62
2023/09/16 14:03:01;;;;;;;7.00;2.92;;;;;;;;;;5096327;28;20475;-62
2023/09/16 14:05:28;;;;;;;4.68;2.95;;;;;;;;;;5082589;28;20040;-63
2023/09/16 14:07:56;;;;;;;4.72;2.63;;;;;;;;;;5088447;28;20044;-62
2023/09/16 14:10:25;;;;;;;4.05;2.75;;;;;;;;;;5098080;28;20070;-62
2023/09/16 14:12:53;;;;;;;4.78;2.75;;;;;;;;;;5086915;28;20055;-62
2023/09/16 14:15:20;;;;;;;6.28;3.08;;;;;;;;;;5096772;28;20108;-62
2023/09/16 14:17:47;;;;;;;4.15;2.60;;;;;;;;;;5090985;28;20063;-62
2023/09/16 14:20:16;;;;;;;5.47;2.78;;;;;;;;;;5088756;28;20044;-62
2023/09/16 14:22:43;;;;;;;5.82;3.00;;;;;;;;;;5090434;28;20039;-62
2023/09/16 14:25:11;;;;;;;5.60;3.72;;;;;;;;;;5099515;28;20066;-62
2023/09/16 14:27:39;;;;;;;4.47;3.53;;;;;;;;;;5091456;28;20546;-62
2023/09/16 14:30:07;;;;;;;6.63;3.50;;;;;;;;;;5093822;28;20138;-62
2023/09/16 14:32:34;;;;;;;5.95;3.25;;;;;;;;;;5097146;28;20040;-63
2023/09/16 14:35:02;;;;;;;5.50;3.05;;;;;;;;;;5083091;28;20064;-62
2023/09/16 14:37:31;;;;;;;3.53;2.72;;;;;;;;;;5085158;28;20044;-62